logo
Rechercher aéroport 
image banner adimage banner adimage banner ad
image banner ad

RPSB - Bantayan Community Airport

Situé à Bantayan Island, Philippines

ICAO - RPSB, IATA -

Données fournies par Airmate  

Information générale

Coordonnées: N11°9'44" E123°47'5"
Élévation : 82 feet MSL.
Variation magnétique : -2° East
Voir autres Aéroports à Cebu

Données opérationnelles

Special qualification required
Heure actuelle UTC:
Heure actuelle locale:
Météo à : - ( 0 km )
METAR: SGEN 171640Z 05006KT 1200 +TSRA OVC008 20/20 Q1011
Voir NOTAMs / SUP AIP / TFR affectant cet aéroport [VIEW]
Fréquences de communication: [VIEW]

Pistes:

Identifiant RWYQFULongueur (ft)Largeur (ft)SurfaceLDA (ft)
16158°393759CONC3937
34338°393759CONC3937

Coordonnées de l'aéroport

Adresse: Bantayan Island Philippines

Vue satellite de RPSB